Terminal Aerodrome Forecast
Issued by NWS Greer, SC

Home | Current Version | Previous Version | Text Only | Print | Product List | Glossary On
Versions: 1 2 3 4 5 6 7 8 9 10 11 12 13 14
000
FTUS42 KGSP 180537
TAFGSP
TAF
KGSP 180537Z 1806/1906 02003KT P6SM SKC
     FM181400 06006KT P6SM FEW250
     FM190000 VRB03KT P6SM SKC=

USA.gov is the U.S. government's official web portal to all federal, state and local government web resources and services.